CheckWX is a tool to help pilots better visualize weather data.  It is not intended as a substitute for an official pre-flight weather briefing.

17:30:40 UTC

KSPW METAR
Spencer Municipal Airport
Spencer, Iowa, USA
Current

24 mins ago

KSPW 261707Z AUTO 01008KT 3SM -RA BR OVC005 18/17 A2987 RMK AO2 P0002 T01830167
Observed
May-26 @ 17:07 UTC
Wind
  • 010° at 8 KTS
Visibility
Flight Rules
IFR
Conditions
Light Rain, Mist
Cloud Levels
  • Overcast at 500' AGL
Temperature
18°C / 64°F
Dewpoint
17°C / 63°F
Humidity
94%
Altimeter
29.87" Hg
Pressure
1011.52 hPa
Current Rain
0.02"
Previous

40 mins ago

KSPW 261651Z AUTO 02008KT 1 3/4SM RA BR OVC006 18/17 A2988 RMK AO2 RAB1558 SLP112 P0003 T01830167
Observed
May-26 @ 16:51 UTC
Wind
  • 020° at 8 KTS
Visibility
Flight Rules
IFR
Conditions
Rain, Mist
Cloud Levels
  • Overcast at 600' AGL
Temperature
18°C / 64°F
Dewpoint
17°C / 63°F
Humidity
94%
Altimeter
29.88" Hg
Pressure
1011.82 hPa
Current Rain
0.03"
Previous

2 hours ago

KSPW 261553Z AUTO 01007KT 6SM BR OVC008 19/17 A2987 RMK AO2 RAB31E41 SLP111 P0000 T01890167
Observed
May-26 @ 15:53 UTC
Wind
  • 010° at 7 KTS
Visibility
Flight Rules
IFR
Conditions
Mist
Cloud Levels
  • Overcast at 800' AGL
Temperature
19°C / 66°F
Dewpoint
17°C / 63°F
Humidity
88%
Altimeter
29.87" Hg
Pressure
1011.52 hPa
Current Rain
0.01"